TimeEDT,TemperatureF,Dew PointF,Humidity,Sea Level PressureIn,VisibilityMPH,Wind Direction,Wind SpeedMPH,Gust SpeedMPH,PrecipitationIn,Events,Conditions,WindDirDegrees,DateUTC
12:53 AM,69.1,66.9,93,29.98,8.0,Calm,Calm,-,N/A,,Clear,0,2012-09-07 04:53:00
1:53 AM,69.1,66.9,93,29.96,8.0,Calm,Calm,-,N/A,,Clear,0,2012-09-07 05:53:00
2:53 AM,68.0,66.0,93,29.95,3.0,Calm,Calm,-,N/A,,Clear,0,2012-09-07 06:53:00
3:30 AM,68.0,66.2,94,29.98,2.5,Calm,Calm,-,N/A,,Clear,0,2012-09-07 07:30:00
3:37 AM,68.0,66.2,94,29.98,6.0,Calm,Calm,-,N/A,,Clear,0,2012-09-07 07:37:00
3:53 AM,66.9,66.0,97,29.94,2.0,Calm,Calm,-,N/A,,Clear,0,2012-09-07 07:53:00
3:55 AM,66.2,66.2,100,29.98,1.5,Calm,Calm,-,N/A,,Clear,0,2012-09-07 07:55:00
3:57 AM,66.2,66.2,100,29.98,1.0,Calm,Calm,-,N/A,,Mist,0,2012-09-07 07:57:00
4:06 AM,66.2,66.2,100,29.98,1.8,Calm,Calm,-,N/A,,Partly Cloudy,0,2012-09-07 08:06:00
4:08 AM,66.2,66.2,100,29.98,3.0,Calm,Calm,-,N/A,,Partly Cloudy,0,2012-09-07 08:08:00
4:33 AM,66.2,66.2,100,29.98,1.8,Calm,Calm,-,N/A,,Partly Cloudy,0,2012-09-07 08:33:00
4:37 AM,66.2,64.4,94,29.98,1.0,Calm,Calm,-,N/A,,Mist,0,2012-09-07 08:37:00
4:45 AM,66.2,64.4,94,29.98,0.5,Calm,Calm,-,N/A,Fog,Fog,0,2012-09-07 08:45:00
4:53 AM,66.0,64.9,96,29.94,0.2,Calm,Calm,-,N/A,Fog,Fog,0,2012-09-07 08:53:00
5:12 AM,66.2,64.4,94,29.98,1.8,Calm,Calm,-,N/A,,Mostly Cloudy,0,2012-09-07 09:12:00
5:14 AM,66.2,64.4,94,29.98,3.0,Calm,Calm,-,N/A,,Mostly Cloudy,0,2012-09-07 09:14:00
5:22 AM,66.2,64.4,94,29.98,5.0,Calm,Calm,-,N/A,,Scattered Clouds,0,2012-09-07 09:22:00
5:39 AM,66.2,64.4,94,29.98,1.5,Calm,Calm,-,N/A,,Partly Cloudy,0,2012-09-07 09:39:00
5:42 AM,66.2,64.4,94,29.98,0.8,Calm,Calm,-,N/A,,Mist,0,2012-09-07 09:42:00
5:51 AM,66.2,64.4,94,29.97,1.2,Calm,Calm,-,N/A,,Partly Cloudy,0,2012-09-07 09:51:00
5:53 AM,66.0,64.9,96,29.94,1.5,Calm,Calm,-,N/A,,Partly Cloudy,0,2012-09-07 09:53:00
5:56 AM,66.2,64.4,94,29.98,3.0,Calm,Calm,-,N/A,,Partly Cloudy,0,2012-09-07 09:56:00
6:49 AM,64.4,64.4,100,29.99,1.8,Calm,Calm,-,N/A,,Scattered Clouds,0,2012-09-07 10:49:00
6:53 AM,64.9,64.0,97,29.95,1.0,South,3.5,-,N/A,,Mist,180,2012-09-07 10:53:00
7:00 AM,64.4,64.4,100,29.99,0.5,Calm,Calm,-,N/A,Fog,Fog,0,2012-09-07 11:00:00
7:32 AM,64.4,62.6,94,29.99,1.8,Calm,Calm,-,N/A,,Mostly Cloudy,0,2012-09-07 11:32:00
7:34 AM,64.4,64.4,100,29.99,2.5,Calm,Calm,-,N/A,,Scattered Clouds,0,2012-09-07 11:34:00
7:41 AM,64.4,64.4,100,29.99,4.0,SE,3.5,-,N/A,,Partly Cloudy,140,2012-09-07 11:41:00
7:53 AM,64.9,64.9,100,29.95,9.0,South,3.5,-,N/A,,Clear,170,2012-09-07 11:53:00
8:34 AM,66.2,64.4,94,30.00,6.0,Calm,Calm,-,N/A,,Partly Cloudy,0,2012-09-07 12:34:00
8:53 AM,68.0,66.0,93,29.97,10.0,Calm,Calm,-,N/A,,Clear,0,2012-09-07 12:53:00
9:40 AM,68.0,66.2,94,30.02,7.0,Calm,Calm,-,N/A,,Partly Cloudy,0,2012-09-07 13:40:00
9:53 AM,69.1,66.9,93,29.98,10.0,Calm,Calm,-,N/A,,Partly Cloudy,0,2012-09-07 13:53:00
10:53 AM,73.9,68.0,82,29.98,9.0,Calm,Calm,-,N/A,,Clear,0,2012-09-07 14:53:00
11:53 AM,77.0,66.9,71,29.97,10.0,Calm,Calm,-,N/A,,Clear,0,2012-09-07 15:53:00
12:53 PM,82.0,69.1,65,29.95,10.0,Variable,3.5,-,N/A,,Clear,0,2012-09-07 16:53:00
1:53 PM,84.9,68.0,57,29.92,10.0,Variable,3.5,-,N/A,,Partly Cloudy,0,2012-09-07 17:53:00
2:53 PM,86.0,64.0,48,29.90,10.0,Variable,4.6,-,N/A,,Clear,0,2012-09-07 18:53:00
3:53 PM,87.1,64.9,48,29.88,10.0,Calm,Calm,-,N/A,,Partly Cloudy,0,2012-09-07 19:53:00
4:53 PM,87.1,63.0,44,29.86,10.0,Variable,3.5,-,N/A,,Clear,0,2012-09-07 20:53:00
5:53 PM,87.1,64.0,46,29.84,10.0,Calm,Calm,-,N/A,,Clear,0,2012-09-07 21:53:00
6:53 PM,82.9,63.0,51,29.82,10.0,Calm,Calm,-,N/A,,Clear,0,2012-09-07 22:53:00
7:53 PM,80.1,63.0,56,29.79,10.0,Calm,Calm,-,N/A,,Clear,0,2012-09-07 23:53:00
8:53 PM,78.1,63.0,60,29.77,10.0,Calm,Calm,-,N/A,,Clear,0,2012-09-08 00:53:00
9:53 PM,77.0,63.0,62,29.80,10.0,Calm,Calm,-,N/A,,Clear,0,2012-09-08 01:53:00
10:53 PM,75.0,63.0,66,29.77,10.0,Calm,Calm,-,N/A,,Clear,0,2012-09-08 02:53:00
11:53 PM,73.9,64.0,71,29.77,10.0,Variable,3.5,-,N/A,,Clear,0,2012-09-08 03:53:00